Chatuge Observed Data For Previous 48 Hours

Caption
Day and Hour Reservoir Elevation (behind dam)* Tailwater Elevation (below dam)* Average Hourly Discharge*
1/17/2018 2 AM EST 1,917.79 1,802.60 0
1/17/2018 3 AM EST 1,917.79 1,802.25 0
1/17/2018 4 AM EST 1,917.79 1,802.15 0
1/17/2018 5 AM EST 1,917.79 1,803.83 39
1/17/2018 6 AM EST 1,917.79 1,805.80 1,326
1/17/2018 7 AM EST 1,917.79 1,805.85 1,314
1/17/2018 8 AM EST 1,917.79 1,805.93 1,315
1/17/2018 9 AM EST 1,917.78 1,805.84 1,315
1/17/2018 10 AM EST 1,917.76 1,805.96 1,316
1/17/2018 11 AM EST 1,917.74 1,805.93 1,315
1/17/2018 12 PM EST 1,917.74 1,803.39 36
1/17/2018 1 PM EST 1,917.73 1,802.96 0
1/17/2018 2 PM EST 1,917.73 1,802.59 0
1/17/2018 3 PM EST 1,917.74 1,802.25 0
1/17/2018 4 PM EST 1,917.74 1,802.15 0
1/17/2018 5 PM EST 1,917.74 1,802.15 0
1/17/2018 6 PM EST 1,917.74 1,803.22 16
1/17/2018 7 PM EST 1,917.74 1,805.67 1,286
1/17/2018 8 PM EST 1,917.74 1,805.73 1,265
1/17/2018 9 PM EST 1,917.73 1,805.82 1,268
1/17/2018 10 PM EST 1,917.72 1,805.78 1,265
1/17/2018 11 PM EST 1,917.71 1,803.37 34
1/18/2018 12 AM EST 1,917.71 1,802.95 0
1/18/2018 1 AM EST 1,917.71 1,802.59 0
1/18/2018 2 AM EST 1,917.71 1,802.24 0
1/18/2018 3 AM EST 1,917.71 1,802.15 0
1/18/2018 4 AM EST 1,917.72 1,802.15 0
1/18/2018 5 AM EST 1,917.72 1,803.28 18
1/18/2018 6 AM EST 1,917.72 1,805.60 1,266
1/18/2018 7 AM EST 1,917.71 1,805.76 1,254
1/18/2018 8 AM EST 1,917.71 1,805.80 1,253
1/18/2018 9 AM EST 1,917.70 1,805.77 1,250
1/18/2018 10 AM EST 1,917.68 1,805.74 1,247
1/18/2018 11 AM EST 1,917.67 1,803.99 722
1/18/2018 12 PM EST 1,917.66 1,803.15 0
1/18/2018 1 PM EST 1,917.66 1,802.79 0
1/18/2018 2 PM EST 1,917.66 1,802.45 0
1/18/2018 3 PM EST 1,917.66 1,802.16 0
1/18/2018 4 PM EST 1,917.67 1,802.16 0
1/18/2018 5 PM EST 1,917.67 1,802.16 0
1/18/2018 6 PM EST 1,917.68 1,803.52 23
1/18/2018 7 PM EST 1,917.68 1,805.75 1,324
1/18/2018 8 PM EST 1,917.68 1,805.93 1,320
1/18/2018 9 PM EST 1,917.67 1,805.85 1,315
1/18/2018 10 PM EST 1,917.66 1,805.88 1,318
1/18/2018 11 PM EST 1,917.65 1,803.39 38
1/19/2018 12 AM EST 1,917.65 1,802.95 0

Elevations are in feet above sea level. Discharges are in cubic feet per second and are reported at the end of the hour.